createdAt,value
2022-08-23T00:00:51.894Z,100427.17578125
2022-08-23T00:01:52.204Z,100427.75
2022-08-23T00:02:51.912Z,100429.83984375
2022-08-23T00:03:51.776Z,100431.91796875
2022-08-23T00:05:08.285Z,100431.859375
2022-08-23T00:05:51.994Z,100434.078125
2022-08-23T00:06:52.147Z,100435.15625
2022-08-23T00:07:51.993Z,100434.46484375
2022-08-23T00:08:51.900Z,100434.8984375
2022-08-23T00:09:51.957Z,100433.6640625
2022-08-23T00:10:54.888Z,100436.0859375
2022-08-23T00:11:52.140Z,100435.81640625
2022-08-23T00:12:51.944Z,100434.31640625
2022-08-23T00:13:51.777Z,100431.18359375
2022-08-23T00:14:51.919Z,100431.140625
2022-08-23T00:15:51.931Z,100429.625
2022-08-23T00:16:52.143Z,100430.125
2022-08-23T00:17:51.837Z,100429.25390625
2022-08-23T00:18:51.911Z,100430.2109375
2022-08-23T00:19:51.960Z,100428.56640625
2022-08-23T00:20:51.920Z,100422.30859375
2022-08-23T00:21:57.825Z,100425.86328125
2022-08-23T00:22:52.140Z,100426.90234375
2022-08-23T00:23:51.881Z,100423.54296875
2022-08-23T00:24:51.911Z,100424.1796875
2022-08-23T00:25:51.888Z,100424.546875
2022-08-23T00:26:51.997Z,100420.7265625
2022-08-23T00:27:57.858Z,100422.33984375
2022-08-23T00:28:51.887Z,100424.2109375
2022-08-23T00:29:51.787Z,100420.65234375
2022-08-23T00:30:51.891Z,100424.04296875
2022-08-23T00:31:51.972Z,100420.92578125
2022-08-23T00:32:52.134Z,100420.3359375
2022-08-23T00:33:51.906Z,100418.609375
2022-08-23T00:34:51.907Z,100419.546875
2022-08-23T00:35:51.944Z,100421.1484375
2022-08-23T00:36:52.221Z,100420.8359375
2022-08-23T00:38:30.419Z,100417.203125
2022-08-23T00:38:54.874Z,100418.91796875
2022-08-23T00:39:52.042Z,100419.65234375
2022-08-23T00:40:51.945Z,100415.09375
2022-08-23T00:41:51.867Z,100416.42578125
2022-08-23T00:42:52.210Z,100413.07421875
2022-08-23T00:43:51.963Z,100411.140625
2022-08-23T00:44:51.862Z,100413.62109375
2022-08-23T00:45:51.769Z,100410.41796875
2022-08-23T00:46:51.901Z,100410.73046875
2022-08-23T00:47:52.223Z,100412.3671875
2022-08-23T00:48:51.938Z,100410.06640625
2022-08-23T00:49:54.910Z,100411.26953125
2022-08-23T00:50:51.854Z,100407.08203125
2022-08-23T00:51:53.114Z,100407.05078125
2022-08-23T00:52:52.253Z,100404.89453125
2022-08-23T00:53:51.887Z,100406.9609375
2022-08-23T00:54:51.779Z,100407.60546875
2022-08-23T00:55:51.974Z,100405.75
2022-08-23T00:56:51.922Z,100409.5625
2022-08-23T00:57:52.144Z,100409.36328125
2022-08-23T00:58:51.979Z,100405.8671875
2022-08-23T00:59:51.888Z,100407.6015625
2022-08-23T01:00:51.882Z,100411.05859375
2022-08-23T01:01:52.007Z,100411.53125
2022-08-23T01:02:52.888Z,100415.390625
2022-08-23T01:04:04.403Z,100415.66015625
2022-08-23T01:04:51.921Z,100411.47265625
2022-08-23T01:05:54.756Z,100414.72265625
2022-08-23T01:06:52.253Z,100417.0625
2022-08-23T01:07:51.985Z,100417.99609375
2022-08-23T01:08:52.264Z,100418.16796875
2022-08-23T01:09:51.985Z,100417.7421875
2022-08-23T01:10:51.973Z,100421.5390625
2022-08-23T01:11:51.918Z,100419.796875
2022-08-23T01:12:51.916Z,100422.12109375
2022-08-23T01:13:52.143Z,100422.4921875
2022-08-23T01:14:51.959Z,100421.46484375
2022-08-23T01:15:51.867Z,100421.46484375
2022-08-23T01:16:51.764Z,100419.44140625
2022-08-23T01:17:51.793Z,100425.49609375
2022-08-23T01:18:52.206Z,100419.60546875
2022-08-23T01:19:51.841Z,100418.73828125
2022-08-23T01:20:51.989Z,100421.890625
2022-08-23T01:21:52.142Z,100419.69921875
2022-08-23T01:22:51.899Z,100422.54296875
2022-08-23T01:23:52.131Z,100418.55078125
2022-08-23T01:25:06.078Z,100420.15234375
2022-08-23T01:25:51.884Z,100419.61328125
2022-08-23T01:26:54.726Z,100419.75
2022-08-23T01:27:51.969Z,100414.7265625
2022-08-23T01:28:52.156Z,100417.6640625
2022-08-23T01:29:51.935Z,100416.19921875
2022-08-23T01:30:51.908Z,100416.8671875
2022-08-23T01:31:51.891Z,100419.73046875
2022-08-23T01:32:51.802Z,100420.7578125
2022-08-23T01:33:52.206Z,100420.4609375
2022-08-23T01:34:52.108Z,100416.16796875
2022-08-23T01:35:51.968Z,100419.16796875
2022-08-23T01:36:52.207Z,100420.734375
2022-08-23T01:37:51.769Z,100427.15625
2022-08-23T01:38:52.244Z,100429.3203125
2022-08-23T01:39:51.831Z,100424.56640625
2022-08-23T01:40:51.779Z,100422.703125
2022-08-23T01:41:51.917Z,100426.828125
2022-08-23T01:42:54.855Z,100427.1953125
2022-08-23T01:43:52.136Z,100420.9375
2022-08-23T01:44:51.954Z,100420.70703125
2022-08-23T01:45:51.888Z,100423.26171875
2022-08-23T01:46:53.093Z,100420.8671875
2022-08-23T01:47:51.907Z,100420.140625
2022-08-23T01:48:52.140Z,100422.671875
2022-08-23T01:49:51.898Z,100415.8828125
2022-08-23T01:50:51.956Z,100416.11328125
2022-08-23T01:51:52.213Z,100415.7265625
2022-08-23T01:52:51.961Z,100416.42578125
2022-08-23T01:53:55.139Z,100418.62109375
2022-08-23T01:54:51.999Z,100418.25390625
2022-08-23T01:55:51.961Z,100417.95703125
2022-08-23T01:56:51.868Z,100420.5234375
2022-08-23T01:57:52.001Z,100418.6953125
2022-08-23T01:58:52.137Z,100420.66015625
2022-08-23T01:59:51.773Z,100418.56640625
2022-08-23T02:00:51.917Z,100416.7734375
2022-08-23T02:01:51.989Z,100418.4375
2022-08-23T02:02:51.920Z,100415.74609375
2022-08-23T02:04:04.932Z,100417.84765625
2022-08-23T02:04:54.780Z,100414.9921875
2022-08-23T02:07:00.543Z,100414.95703125
2022-08-23T02:08:00.373Z,100416.625
2022-08-23T02:09:00.480Z,100415.29296875
2022-08-23T02:10:00.328Z,100415.296875
2022-08-23T02:11:00.315Z,100414.59765625
2022-08-23T02:12:03.221Z,100412.4375
2022-08-23T02:13:00.314Z,100413.53515625
2022-08-23T02:14:00.558Z,100410.1484375
2022-08-23T02:15:00.307Z,100414.6328125
2022-08-23T02:16:00.314Z,100415.89453125
2022-08-23T02:17:03.514Z,100417.0234375
2022-08-23T02:18:00.333Z,100419.28515625
2022-08-23T02:19:00.540Z,100420.046875
2022-08-23T02:20:00.309Z,100423.69921875
2022-08-23T02:21:00.244Z,100418.34765625
2022-08-23T02:22:00.536Z,100422.93359375
2022-08-23T02:23:03.271Z,100424.2265625
2022-08-23T02:24:00.597Z,100425.72265625
2022-08-23T02:25:00.182Z,100424.2265625
2022-08-23T02:26:00.242Z,100429.11328125
2022-08-23T02:27:00.259Z,100432.83203125
2022-08-23T02:28:00.198Z,100426.8828125
2022-08-23T02:29:00.604Z,100428.28125
2022-08-23T02:30:00.218Z,100429.73828125
2022-08-23T02:31:00.310Z,100430.26953125
2022-08-23T02:32:00.279Z,100430.03515625
2022-08-23T02:33:00.325Z,100436.8125
2022-08-23T02:35:38.683Z,100436.20703125
2022-08-23T02:36:38.622Z,100434.74609375
2022-08-23T02:37:39.073Z,100436.671875
2022-08-23T02:38:38.711Z,100436.09765625
2022-08-23T02:39:39.077Z,100438.8203125
2022-08-23T02:40:41.636Z,100435.96484375
2022-08-23T02:41:38.729Z,100437.7578125
2022-08-23T02:42:38.671Z,100435.58984375
2022-08-23T02:43:41.023Z,100436.68359375
2022-08-23T02:44:39.064Z,100436.58203125
2022-08-23T02:45:38.725Z,100437.74609375
2022-08-23T02:46:38.635Z,100438.96875
2022-08-23T02:47:38.625Z,100442.0859375
2022-08-23T02:48:38.629Z,100445.9453125
2022-08-23T02:49:39.066Z,100435.125
2022-08-23T02:50:38.716Z,100439.90625
2022-08-23T02:51:41.625Z,100440.49609375
2022-08-23T02:52:38.993Z,100442.8125
2022-08-23T02:53:38.695Z,100440.7421875
2022-08-23T02:54:38.994Z,100440.640625
2022-08-23T02:55:38.709Z,100443.58984375
2022-08-23T02:56:38.611Z,100441.43359375
2022-08-23T02:57:38.619Z,100441.9609375
2022-08-23T02:58:38.631Z,100438.47265625
2022-08-23T02:59:39.059Z,100439.53515625
2022-08-23T03:00:38.700Z,100439.04296875
2022-08-23T03:01:38.734Z,100438.3125
2022-08-23T03:02:41.774Z,100442.12109375
2022-08-23T03:03:38.720Z,100442.0546875
2022-08-23T03:04:39.011Z,100439
2022-08-23T03:05:38.693Z,100440.3203125
2022-08-23T03:06:38.746Z,100440.50390625
2022-08-23T03:07:39.066Z,100442.7265625
2022-08-23T03:08:38.618Z,100445.5390625
2022-08-23T03:09:38.632Z,100445.50390625
2022-08-23T03:10:38.635Z,100444.6796875
2022-08-23T03:11:38.702Z,100447.89453125
2022-08-23T03:12:38.643Z,100447.58203125
2022-08-23T03:13:38.619Z,100443.82421875
2022-08-23T03:14:38.992Z,100443.078125
2022-08-23T03:15:38.702Z,100444.1328125
2022-08-23T03:16:38.701Z,100445.1953125
2022-08-23T03:17:38.635Z,100444.1015625
2022-08-23T03:18:41.596Z,100449.8125
2022-08-23T03:19:38.996Z,100445.42578125
2022-08-23T03:20:38.715Z,100449.5703125
2022-08-23T03:21:38.626Z,100447.94140625
2022-08-23T03:22:39.063Z,100448.6640625
2022-08-23T03:23:38.710Z,100448.85546875
2022-08-23T03:24:44.649Z,100449.62109375
2022-08-23T03:25:38.700Z,100453.86328125
2022-08-23T03:26:38.622Z,100450.92578125
2022-08-23T03:27:44.735Z,100451.7421875
2022-08-23T03:28:38.635Z,100451.48046875
2022-08-23T03:29:39.067Z,100453.26953125
2022-08-23T03:30:38.632Z,100450.3828125
2022-08-23T03:31:38.691Z,100448.7890625
2022-08-23T03:32:38.667Z,100450.21484375
2022-08-23T03:33:38.747Z,100449.15234375
2022-08-23T03:34:39.023Z,100449.28125
2022-08-23T03:35:38.568Z,100448.22265625
2022-08-23T03:36:38.760Z,100451.84375
2022-08-23T03:37:38.925Z,100450.015625
2022-08-23T03:38:38.555Z,100451.98046875
2022-08-23T03:39:39.099Z,100456.11328125
2022-08-23T03:40:41.683Z,100450.703125
2022-08-23T03:41:38.768Z,100454.12109375
2022-08-23T03:42:38.737Z,100453.11328125
2022-08-23T03:43:38.669Z,100451.37890625
2022-08-23T03:44:38.928Z,100455.02734375
2022-08-23T03:45:38.778Z,100454.8125
2022-08-23T03:46:41.593Z,100453.71484375
2022-08-23T03:47:38.663Z,100456.1640625
2022-08-23T03:48:38.560Z,100454.875
2022-08-23T03:49:38.680Z,100458.921875
2022-08-23T03:50:38.577Z,100460.08984375
2022-08-23T03:51:38.564Z,100457.67578125
2022-08-23T03:52:38.917Z,100460.08203125
2022-08-23T03:53:38.703Z,100458.28515625
2022-08-23T03:54:38.930Z,100462.1328125
2022-08-23T03:55:42.091Z,100460.109375
2022-08-23T03:56:38.570Z,100463.04296875
2022-08-23T03:57:41.677Z,100463.234375
2022-08-23T03:58:38.759Z,100464.45703125
2022-08-23T03:59:38.919Z,100471.12109375
2022-08-23T04:00:38.735Z,100465.21484375
2022-08-23T04:01:38.773Z,100465.54296875
2022-08-23T04:02:38.707Z,100469.046875
2022-08-23T04:03:41.674Z,100467.8828125
2022-08-23T04:04:38.733Z,100467.3828125
2022-08-23T04:05:38.650Z,100474.01953125
2022-08-23T04:06:38.701Z,100473.88671875
2022-08-23T04:07:38.956Z,100473.71484375
2022-08-23T04:08:38.732Z,100472.609375
2022-08-23T04:09:38.921Z,100472.890625
2022-08-23T04:10:38.689Z,100475.26171875
2022-08-23T04:11:38.776Z,100472.734375
2022-08-23T04:12:38.717Z,100477.2734375
2022-08-23T04:13:38.555Z,100475.71875
2022-08-23T04:14:41.644Z,100475.4765625
2022-08-23T04:15:38.715Z,100478.59765625
2022-08-23T04:16:38.663Z,100479.109375
2022-08-23T04:17:38.625Z,100478.26953125
2022-08-23T04:18:38.568Z,100477.83203125
2022-08-23T04:19:39.000Z,100477.44921875
2022-08-23T04:20:38.688Z,100481.8984375
2022-08-23T04:21:38.646Z,100482.30078125
2022-08-23T04:22:38.933Z,100480.7734375
2022-08-23T04:23:38.735Z,100483.765625
2022-08-23T04:24:39.021Z,100482.65625
2022-08-23T04:25:41.694Z,100484.94921875
2022-08-23T04:26:38.761Z,100488.0703125
2022-08-23T04:27:38.721Z,100489.875
2022-08-23T04:28:38.687Z,100488.78515625
2022-08-23T04:29:38.920Z,100492.859375
2022-08-23T04:30:38.612Z,100490.046875
2022-08-23T04:31:38.745Z,100489.23828125
2022-08-23T04:32:38.558Z,100489.7734375
2022-08-23T04:33:40.295Z,100493.2109375
2022-08-23T04:34:38.923Z,100493.34765625
2022-08-23T04:35:38.747Z,100494.01171875
2022-08-23T04:36:41.565Z,100492.2421875
2022-08-23T04:37:38.939Z,100498.640625
2022-08-23T04:38:38.758Z,100498.28515625
2022-08-23T04:39:39.162Z,100500.21484375
2022-08-23T04:40:38.738Z,100499.53515625
2022-08-23T04:41:38.701Z,100502.06640625
2022-08-23T04:42:38.608Z,100503.8828125
2022-08-23T04:43:38.640Z,100503.6875
2022-08-23T04:44:39.000Z,100503.12109375
2022-08-23T04:45:38.742Z,100501.45703125
2022-08-23T04:46:38.672Z,100504.51171875
2022-08-23T04:47:41.655Z,100505.140625
2022-08-23T04:48:38.743Z,100501.70703125
2022-08-23T04:49:38.922Z,100505.6796875
2022-08-23T04:50:38.749Z,100503.6953125
2022-08-23T04:51:38.549Z,100503.578125
2022-08-23T04:52:38.998Z,100506.00390625
2022-08-23T04:53:38.698Z,100504.47265625
2022-08-23T04:54:38.654Z,100508.98828125
2022-08-23T04:55:38.554Z,100505.06640625
2022-08-23T04:56:38.677Z,100513.04296875
2022-08-23T04:57:38.659Z,100508.375
2022-08-23T04:58:41.708Z,100512.32421875
2022-08-23T04:59:39.042Z,100512.9296875
2022-08-23T05:00:38.779Z,100511.375
2022-08-23T05:01:38.654Z,100512.58203125
2022-08-23T05:02:38.527Z,100510.33203125
2022-08-23T05:03:38.764Z,100512.0390625
2022-08-23T05:04:38.919Z,100511.44140625
2022-08-23T05:05:38.715Z,100511.91796875
2022-08-23T05:06:38.775Z,100509.859375
2022-08-23T05:07:42.297Z,100513.5390625
2022-08-23T05:08:38.660Z,100511.3515625
2022-08-23T05:09:44.582Z,100509.9609375
2022-08-23T05:10:38.773Z,100513.41796875
2022-08-23T05:11:38.768Z,100513.7109375
2022-08-23T05:12:38.771Z,100512.88671875
2022-08-23T05:13:38.558Z,100514.6796875
2022-08-23T05:14:38.992Z,100516.9140625
2022-08-23T05:15:41.578Z,100518.40625
2022-08-23T05:16:38.763Z,100522.890625
2022-08-23T05:17:38.567Z,100522.34765625
2022-08-23T05:18:38.639Z,100519.1953125
2022-08-23T05:19:44.267Z,100524.28125
2022-08-23T05:20:38.762Z,100525.11328125
2022-08-23T05:21:38.702Z,100526.4921875
2022-08-23T05:22:38.939Z,100529.46484375
2022-08-23T05:23:38.753Z,100532.125
2022-08-23T05:24:38.924Z,100533.828125
2022-08-23T05:25:38.734Z,100531.8671875
2022-08-23T05:26:38.707Z,100535.6015625
2022-08-23T05:27:38.657Z,100540.47265625
2022-08-23T05:28:38.672Z,100538.01953125
2022-08-23T05:29:38.919Z,100538.64453125
2022-08-23T05:30:38.763Z,100540.703125
2022-08-23T05:31:38.644Z,100540.6796875
2022-08-23T05:32:38.696Z,100541.8359375
2022-08-23T05:33:38.744Z,100544.4296875
2022-08-23T05:34:39.000Z,100544.13671875
2022-08-23T05:35:38.772Z,100543.765625
2022-08-23T05:36:48.286Z,100545.8203125
2022-08-23T05:37:38.919Z,100545.0625
2022-08-23T05:38:38.722Z,100548.17578125
2022-08-23T05:39:39.154Z,100550.8125
2022-08-23T05:40:38.703Z,100553.359375
2022-08-23T05:41:38.728Z,100550.859375
2022-08-23T05:42:38.701Z,100556.87890625
2022-08-23T05:43:38.580Z,100558.4140625
2022-08-23T05:44:38.994Z,100555.62890625
2022-08-23T05:45:38.653Z,100556.4765625
2022-08-23T05:46:38.670Z,100556.62109375
2022-08-23T05:47:41.567Z,100562.7578125
2022-08-23T05:48:38.735Z,100563.59765625
2022-08-23T05:49:38.914Z,100565.90234375
2022-08-23T05:50:38.718Z,100561.3984375
2022-08-23T05:51:38.684Z,100566.94140625
2022-08-23T05:52:38.925Z,100563.4375
2022-08-23T05:53:38.647Z,100570.1484375
2022-08-23T05:54:38.991Z,100567.03515625
2022-08-23T05:55:38.782Z,100570.5234375
2022-08-23T05:56:38.665Z,100572.4453125
2022-08-23T05:57:38.657Z,100564.9453125
2022-08-23T05:58:41.663Z,100563.71875
2022-08-23T05:59:38.920Z,100560.1328125
2022-08-23T06:00:40.494Z,100563.51171875
2022-08-23T06:01:38.746Z,100556.34375
2022-08-23T06:02:38.694Z,100557.06640625
2022-08-23T06:03:38.709Z,100563.49609375
2022-08-23T06:04:38.670Z,100563.6640625
2022-08-23T06:05:38.686Z,100565.55078125
2022-08-23T06:06:38.754Z,100566.0703125
2022-08-23T06:07:38.989Z,100566.796875
2022-08-23T06:08:38.775Z,100564.84375
2022-08-23T06:09:44.612Z,100567.8828125
2022-08-23T06:10:42.225Z,100561.72265625
2022-08-23T06:11:38.651Z,100564.609375
2022-08-23T06:12:38.702Z,100567.71875
2022-08-23T06:13:38.704Z,100564.703125
2022-08-23T06:14:38.925Z,100564.04296875
2022-08-23T06:15:38.680Z,100564.53125
2022-08-23T06:16:38.666Z,100562.0390625
2022-08-23T06:17:38.722Z,100567.3984375
2022-08-23T06:18:38.691Z,100561.1484375
2022-08-23T06:19:38.932Z,100560.55078125
2022-08-23T06:20:41.769Z,100563.9765625
2022-08-23T06:21:38.742Z,100565.0234375
2022-08-23T06:22:39.020Z,100564.375
2022-08-23T06:23:38.785Z,100567.6015625
2022-08-23T06:24:38.923Z,100566.5390625
2022-08-23T06:25:38.634Z,100566.41015625
2022-08-23T06:26:38.677Z,100561.71484375
2022-08-23T06:27:38.750Z,100568.46875
2022-08-23T06:28:50.497Z,100562.38671875
2022-08-23T06:29:38.953Z,100564.26171875
2022-08-23T06:30:39.815Z,100565.17578125
2022-08-23T06:31:41.574Z,100570.17578125
2022-08-23T06:32:38.797Z,100567.98828125
2022-08-23T06:33:38.802Z,100568.734375
2022-08-23T06:34:38.915Z,100568.59765625
2022-08-23T06:35:40.237Z,100565.5234375
2022-08-23T06:36:38.683Z,100570.7578125
2022-08-23T06:37:38.919Z,100572.3671875
2022-08-23T06:38:38.585Z,100571.9140625
2022-08-23T06:39:39.153Z,100571.05859375
2022-08-23T06:40:38.742Z,100569.98828125
2022-08-23T06:41:38.718Z,100570.06640625
2022-08-23T06:42:41.667Z,100571.4609375
2022-08-23T06:43:38.772Z,100570.046875
2022-08-23T06:44:38.926Z,100567.3984375
2022-08-23T06:45:38.611Z,100565.5859375
2022-08-23T06:46:38.793Z,100568.33984375
2022-08-23T06:47:38.747Z,100564.40234375
2022-08-23T06:48:38.666Z,100565.68359375
2022-08-23T06:49:38.928Z,100568.9765625
2022-08-23T06:50:38.646Z,100564.91015625
2022-08-23T06:51:38.601Z,100569.58984375
2022-08-23T06:52:39.025Z,100567.1484375
2022-08-23T06:53:38.722Z,100569.5078125
2022-08-23T06:54:38.997Z,100567.2890625
2022-08-23T06:55:38.778Z,100571.3828125
2022-08-23T06:56:38.695Z,100574.53125
2022-08-23T06:57:38.773Z,100574.93359375
2022-08-23T06:58:41.682Z,100571.6953125
2022-08-23T06:59:38.936Z,100567.46484375
2022-08-23T07:00:38.819Z,100576.453125
2022-08-23T07:01:45.772Z,100567.30078125
2022-08-23T07:02:38.668Z,100573.0390625
2022-08-23T07:03:38.592Z,100572.15625
2022-08-23T07:04:38.931Z,100568.5234375
2022-08-23T07:05:38.654Z,100571.79296875
2022-08-23T07:06:38.641Z,100574.34375
2022-08-23T07:07:41.367Z,100570.9375
2022-08-23T07:08:38.757Z,100572.71875
2022-08-23T07:09:44.636Z,100576.7734375
2022-08-23T07:10:38.772Z,100573.57421875
2022-08-23T07:11:38.639Z,100573.48046875
2022-08-23T07:12:38.704Z,100571.3125
2022-08-23T07:13:38.662Z,100572.765625
2022-08-23T07:14:39.030Z,100573.33203125
2022-08-23T07:15:41.631Z,100572.83203125
2022-08-23T07:16:38.888Z,100576.49609375
2022-08-23T07:17:38.565Z,100573.90625
2022-08-23T07:18:38.724Z,100576.8671875
2022-08-23T07:19:38.920Z,100573.8125
2022-08-23T07:20:38.570Z,100574.84765625
2022-08-23T07:21:38.662Z,100577.703125
2022-08-23T07:22:38.696Z,100572.1484375
2022-08-23T07:23:38.765Z,100578.203125
2022-08-23T07:24:39.007Z,100573.01953125
2022-08-23T07:25:38.755Z,100575.578125
2022-08-23T07:26:41.552Z,100579.7109375
2022-08-23T07:27:39.508Z,100580.79296875
2022-08-23T07:28:38.653Z,100584.16796875
2022-08-23T07:29:38.998Z,100583.3046875
2022-08-23T07:30:41.045Z,100584.47265625
2022-08-23T07:31:38.694Z,100583.00390625
2022-08-23T07:32:38.673Z,100581.875
2022-08-23T07:33:38.664Z,100581.84765625
2022-08-23T07:34:38.931Z,100581.6953125
2022-08-23T07:35:40.394Z,100582.20703125
2022-08-23T07:36:38.784Z,100582.65625
2022-08-23T07:37:44.615Z,100579.08203125
2022-08-23T07:38:39.698Z,100580.6953125
2022-08-23T07:39:39.130Z,100575.15234375
2022-08-23T07:40:40.620Z,100574.98046875
2022-08-23T07:41:38.687Z,100577
2022-08-23T07:42:38.553Z,100588.8515625
2022-08-23T07:43:38.674Z,100583.1640625
2022-08-23T07:44:39.053Z,100587.21875
2022-08-23T07:45:38.768Z,100592.796875
2022-08-23T07:46:38.687Z,100596.61328125
2022-08-23T07:47:38.672Z,100590.8671875
2022-08-23T07:48:54.095Z,100593.44921875
2022-08-23T07:49:38.928Z,100594.71484375
2022-08-23T07:50:38.670Z,100593.87109375
2022-08-23T07:51:38.655Z,100595.0625
2022-08-23T07:52:39.006Z,100593.96484375
2022-08-23T07:53:39.758Z,100595.57421875
2022-08-23T07:54:38.656Z,100595.6640625
2022-08-23T07:55:38.638Z,100593.08203125
2022-08-23T07:56:38.672Z,100593.05078125
2022-08-23T07:57:38.762Z,100595.68359375
2022-08-23T07:58:38.759Z,100591.3984375
2022-08-23T07:59:41.583Z,100593.2109375
2022-08-23T08:00:38.727Z,100592.53125
2022-08-23T08:01:38.602Z,100591.67578125
2022-08-23T08:02:38.730Z,100593.01953125
2022-08-23T08:03:38.623Z,100595.09765625
2022-08-23T08:04:38.663Z,100591.6171875
2022-08-23T08:05:38.706Z,100594.6171875
2022-08-23T08:06:38.695Z,100595.765625
2022-08-23T08:07:38.964Z,100594.94140625
2022-08-23T08:08:38.741Z,100597.87109375
2022-08-23T08:09:38.998Z,100600.8046875
2022-08-23T08:10:41.689Z,100599.66015625
2022-08-23T08:11:38.664Z,100598.94921875
2022-08-23T08:12:38.705Z,100600.62890625
2022-08-23T08:13:38.758Z,100598.26953125
2022-08-23T08:14:38.990Z,100598.54296875
2022-08-23T08:15:38.667Z,100597.1796875
2022-08-23T08:16:38.585Z,100596.62890625
2022-08-23T08:17:38.668Z,100599.01171875
2022-08-23T08:18:38.646Z,100605.21875
2022-08-23T08:19:39.009Z,100603.015625
2022-08-23T08:20:38.641Z,100595.70703125
2022-08-23T08:21:42.026Z,100603.03125
2022-08-23T08:22:38.963Z,100601.7421875
2022-08-23T08:23:38.653Z,100602.8828125
2022-08-23T08:24:38.989Z,100603.33984375
2022-08-23T08:25:38.796Z,100603.34765625
2022-08-23T08:26:38.755Z,100602.28125
2022-08-23T08:27:38.643Z,100604.390625
2022-08-23T08:28:38.660Z,100602.7890625
2022-08-23T08:29:38.930Z,100601.921875
2022-08-23T08:30:38.773Z,100607.265625
2022-08-23T08:31:38.822Z,100602.51953125
2022-08-23T08:32:47.265Z,100604.84765625
2022-08-23T08:33:38.652Z,100602.23046875
2022-08-23T08:34:39.000Z,100605.49609375
2022-08-23T08:35:38.734Z,100603.4140625
2022-08-23T08:36:38.664Z,100606.5625
2022-08-23T08:37:39.020Z,100603.4921875
2022-08-23T08:38:38.841Z,100607.49609375
2022-08-23T08:39:38.990Z,100603.0859375
2022-08-23T08:40:38.720Z,100610.953125
2022-08-23T08:41:38.569Z,100609.25390625
2022-08-23T08:42:38.675Z,100610.61328125
2022-08-23T08:43:41.674Z,100608.6875
2022-08-23T08:44:38.612Z,100611.87890625
2022-08-23T08:45:38.693Z,100614.48046875
2022-08-23T08:46:38.783Z,100613.828125
2022-08-23T08:47:38.597Z,100613.9609375
2022-08-23T08:48:38.563Z,100617.98046875
2022-08-23T08:49:38.930Z,100617.40625
2022-08-23T08:50:38.678Z,100619.76171875
2022-08-23T08:51:38.741Z,100617.5625
2022-08-23T08:52:38.996Z,100621.421875
2022-08-23T08:53:38.915Z,100620.359375
2022-08-23T08:54:48.040Z,100620.9921875
2022-08-23T08:55:38.736Z,100621.203125
2022-08-23T08:56:38.695Z,100619.0859375
2022-08-23T08:57:38.769Z,100619.76171875
2022-08-23T08:58:38.693Z,100620.05078125
2022-08-23T08:59:38.924Z,100616.20703125
2022-08-23T09:00:38.676Z,100619.94140625
2022-08-23T09:01:38.753Z,100615.7578125
2022-08-23T09:02:38.805Z,100615.109375
2022-08-23T09:03:38.812Z,100618.44140625
2022-08-23T09:04:38.995Z,100614.76171875
2022-08-23T09:05:41.674Z,100615.1484375
2022-08-23T09:06:38.722Z,100613.55078125
2022-08-23T09:07:39.055Z,100612.12890625
2022-08-23T09:08:38.760Z,100614.87890625
2022-08-23T09:09:38.921Z,100614.76171875
2022-08-23T09:10:38.757Z,100611.99609375
2022-08-23T09:11:38.662Z,100613.1953125
2022-08-23T09:12:38.679Z,100610.8984375
2022-08-23T09:13:40.294Z,100615.25390625
2022-08-23T09:14:39.004Z,100612.78515625
2022-08-23T09:15:38.731Z,100611.71484375
2022-08-23T09:16:41.550Z,100610.0390625
2022-08-23T09:17:38.648Z,100606.203125
2022-08-23T09:18:38.654Z,100603.55078125
2022-08-23T09:19:38.996Z,100607.6171875
2022-08-23T09:20:38.759Z,100604.5703125
2022-08-23T09:21:38.698Z,100602.60546875
2022-08-23T09:22:38.953Z,100598.546875
2022-08-23T09:23:38.563Z,100601.00390625
2022-08-23T09:24:39.714Z,100605.0234375
2022-08-23T09:25:38.666Z,100602.80078125
2022-08-23T09:26:38.667Z,100601.33984375
2022-08-23T09:27:41.661Z,100601.625
2022-08-23T09:28:38.692Z,100604.99609375
2022-08-23T09:29:38.999Z,100600.83203125
2022-08-23T09:30:38.733Z,100596.953125
2022-08-23T09:31:38.865Z,100595.59375
2022-08-23T09:32:38.697Z,100594.23828125
2022-08-23T09:33:38.636Z,100589.7578125
2022-08-23T09:34:38.562Z,100589.87109375
2022-08-23T09:35:38.664Z,100590.7421875
2022-08-23T09:36:38.675Z,100591.3203125
2022-08-23T09:37:39.052Z,100596.6015625
2022-08-23T09:38:43.362Z,100589.24609375
2022-08-23T09:39:39.157Z,100590.83984375
2022-08-23T09:40:41.387Z,100589.26171875
2022-08-23T09:41:38.701Z,100591.79296875
2022-08-23T09:42:38.732Z,100586.38671875
2022-08-23T09:43:38.702Z,100588.01953125
2022-08-23T09:44:38.933Z,100586.50390625
2022-08-23T09:45:38.640Z,100586.5078125
2022-08-23T09:46:38.653Z,100585.06640625
2022-08-23T09:47:44.547Z,100585.859375
2022-08-23T09:48:38.671Z,100584.76953125
2022-08-23T09:49:44.607Z,100583.94140625
2022-08-23T09:50:38.744Z,100582.98046875
2022-08-23T09:51:38.752Z,100580.62890625
2022-08-23T09:52:38.936Z,100583.61328125
2022-08-23T09:53:40.842Z,100584.6015625
2022-08-23T09:54:41.998Z,100582.08203125
2022-08-23T09:55:38.679Z,100581.83203125
2022-08-23T09:56:38.685Z,100582.01171875
2022-08-23T09:57:38.746Z,100581.97265625
2022-08-23T09:58:38.664Z,100584.29296875
2022-08-23T09:59:38.916Z,100577.71875
2022-08-23T10:00:41.582Z,100576.83203125
2022-08-23T10:01:39.338Z,100575.17578125